Time;durP1;ratioP1;P1;durP2;ratioP2;P2;SDS_P1;SDS_P2;PMS_P1;PMS_P2;Temp;Humidity;BMP_temperature;BMP_pressure;BME280_temperature;BME280_humidity;BME280_pressure;Samples;Min_cycle;Max_cycle;Signal;HPM_P1;HPM_P2
2024/01/11 00:00:37;;;;;;;;;;;;;;;0.74;64.84;102187.06;5050134;28;19925;-58
2024/01/11 00:03:04;;;;;;;;;;;;;;;1.05;64.02;102181.72;5069707;28;20319;-57
2024/01/11 00:05:31;;;;;;;;;;;;;;;1.08;63.88;102186.75;5070453;28;19930;-56
2024/01/11 00:07:59;;;;;;;;;;;;;;;1.02;63.86;102193.03;5068123;28;19925;-58
2024/01/11 00:10:26;;;;;;;;;;;;;;;1.07;63.56;102196.75;5069201;28;19925;-55
2024/01/11 00:12:53;;;;;;;;;;;;;;;0.58;64.89;102193.78;5051395;28;20442;-58
2024/01/11 00:15:20;;;;;;;;;;;;;;;0.70;64.03;102191.22;5070411;28;19931;-56
2024/01/11 00:17:47;;;;;;;;;;;;;;;0.65;64.36;102188.34;5068992;28;19924;-57
2024/01/11 00:20:14;;;;;;;;;;;;;;;0.77;64.64;102189.34;5070458;28;19955;-55
2024/01/11 00:22:45;;;;;;;;;;;;;;;0.57;64.77;102191.28;5069503;28;20302;-54
2024/01/11 00:25:15;;;;;;;;;;;;;;;0.35;65.02;102198.81;5069132;28;19931;-57
2024/01/11 00:27:43;;;;;;;;;;;;;;;0.25;66.33;102201.13;5071911;28;19924;-57
2024/01/11 00:30:10;;;;;;;;;;;;;;;0.53;65.39;102199.00;5068514;28;19924;-55
2024/01/11 00:32:37;;;;;;;;;;;;;;;0.62;65.22;102202.31;5070524;28;19930;-58
2024/01/11 00:35:04;;;;;;;;;;;;;;;0.45;64.97;102201.09;5069980;28;19931;-55
2024/01/11 00:37:31;;;;;;;;;;;;;;;0.20;65.87;102208.22;5070458;28;19931;-57
2024/01/11 00:39:59;;;;;;;;;;;;;;;0.24;66.19;102215.72;5060959;28;19932;-56
2024/01/11 00:42:26;;;;;;;;;;;;;;;0.29;65.86;102212.38;5056534;28;20720;-59
2024/01/11 00:44:53;;;;;;;;;;;;;;;0.36;66.42;102213.22;5069045;28;19925;-56
2024/01/11 00:47:20;;;;;;;;;;;;;;;0.41;66.02;102213.41;5069269;28;19924;-55
2024/01/11 00:49:47;;;;;;;;;;;;;;;0.46;65.84;102213.59;5068037;28;19924;-58
2024/01/11 00:52:14;;;;;;;;;;;;;;;0.44;65.67;102212.97;5053452;28;19925;-57
2024/01/11 00:54:43;;;;;;;;;;;;;;;0.62;65.01;102218.59;5053013;28;20395;-55
2024/01/11 00:57:13;;;;;;;;;;;;;;;0.50;65.64;102218.41;5062217;28;20714;-55
2024/01/11 00:59:48;;;;;;;;;;;;;;;0.81;65.22;102217.72;5071590;28;20414;-57
2024/01/11 01:02:15;;;;;;;;;;;;;;;0.27;66.35;102226.13;5069906;28;20299;-55
2024/01/11 01:04:42;;;;;;;;;;;;;;;0.29;66.44;102226.78;5067947;28;19931;-53
2024/01/11 01:07:09;;;;;;;;;;;;;;;0.30;66.82;102228.41;5070206;28;19927;-57
2024/01/11 01:09:36;;;;;;;;;;;;;;;0.37;66.27;102233.81;5067925;28;20302;-58
2024/01/11 01:12:04;;;;;;;;;;;;;;;0.54;65.88;102226.97;5069988;28;19936;-52
2024/01/11 01:14:31;;;;;;;;;;;;;;;0.35;66.37;102227.81;5069346;28;19925;-53
2024/01/11 01:16:58;;;;;;;;;;;;;;;0.81;66.02;102233.97;5069245;28;19924;-55
2024/01/11 01:19:25;;;;;;;;;;;;;;;0.73;65.49;102228.78;5068458;28;19932;-63
2024/01/11 01:21:52;;;;;;;;;;;;;;;0.48;65.65;102227.78;5070020;28;19931;-58
2024/01/11 01:24:19;;;;;;;;;;;;;;;0.59;65.71;102222.56;5069231;28;19924;-56
2024/01/11 01:26:46;;;;;;;;;;;;;;;0.73;65.44;102234.22;5069580;28;19924;-55
2024/01/11 01:29:14;;;;;;;;;;;;;;;0.51;65.10;102230.91;5068968;28;20386;-56
2024/01/11 01:31:41;;;;;;;;;;;;;;;0.37;66.51;102234.66;5067698;28;20693;-57
2024/01/11 01:34:08;;;;;;;;;;;;;;;0.65;65.90;102247.97;5069824;28;19925;-53
2024/01/11 01:36:35;;;;;;;;;;;;;;;0.51;65.80;102241.75;5059121;28;19924;-57
2024/01/11 01:39:03;;;;;;;;;;;;;;;0.46;66.38;102241.56;5080520;28;19955;-56
2024/01/11 01:41:30;;;;;;;;;;;;;;;0.56;65.90;102230.28;5049829;28;19932;-57
2024/01/11 01:43:57;;;;;;;;;;;;;;;0.41;65.80;102240.50;5069821;28;19924;-56
2024/01/11 01:46:24;;;;;;;;;;;;;;;0.56;66.06;102236.53;5069477;28;19931;-56
2024/01/11 01:48:54;;;;;;;;;;;;;;;0.47;66.24;102248.63;5068995;28;19925;-58
2024/01/11 01:51:22;;;;;;;;;;;;;;;0.70;65.74;102259.03;5050872;28;20378;-57
2024/01/11 01:53:50;;;;;;;;;;;;;;;0.55;65.99;102269.28;5069231;28;19929;-55
2024/01/11 01:56:17;;;;;;;;;;;;;;;0.34;66.84;102267.63;5100750;28;19935;-52
2024/01/11 01:58:44;;;;;;;;;;;;;;;0.41;66.31;102275.75;5101095;28;20026;-55
2024/01/11 02:01:11;;;;;;;;;;;;;;;0.21;66.92;102275.72;5083151;28;19924;-56
2024/01/11 02:03:38;;;;;;;;;;;;;;;0.39;66.61;102280.53;5101409;28;20567;-56
2024/01/11 02:06:06;;;;;;;;;;;;;;;0.20;67.17;102279.50;5068563;28;19932;-57
2024/01/11 02:08:33;;;;;;;;;;;;;;;0.03;67.77;102284.47;5066292;28;19924;-62
2024/01/11 02:11:04;;;;;;;;;;;;;;;0.27;67.51;102287.63;5067156;28;19931;-52
2024/01/11 02:13:31;;;;;;;;;;;;;;;0.35;67.71;102287.44;5066225;28;19932;-54
2024/01/11 02:15:58;;;;;;;;;;;;;;;0.41;66.68;102287.41;5067744;28;19924;-53
2024/01/11 02:18:25;;;;;;;;;;;;;;;0.55;67.04;102299.09;5067283;28;20371;-63
2024/01/11 02:20:53;;;;;;;;;;;;;;;0.56;66.71;102285.31;5068359;28;19924;-56
2024/01/11 02:23:21;;;;;;;;;;;;;;;0.39;66.41;102288.66;5066904;28;19924;-55
2024/01/11 02:25:48;;;;;;;;;;;;;;;0.36;66.95;102297.22;5068183;28;19926;-56
2024/01/11 02:28:16;;;;;;;;;;;;;;;0.50;66.62;102288.03;5067126;28;19924;-55
2024/01/11 02:31:11;;;;;;;;;;;;;;;0.55;66.98;102293.66;5068376;28;20470;-54
2024/01/11 02:33:39;;;;;;;;;;;;;;;0.47;66.26;102310.16;5072724;28;19924;-58
2024/01/11 02:36:14;;;;;;;;;;;;;;;-0.03;68.42;102306.97;5073041;28;19931;-55
2024/01/11 02:38:42;;;;;;;;;;;;;;;0.08;67.96;102310.09;5072983;28;19935;-52
2024/01/11 02:41:12;;;;;;;;;;;;;;;0.05;68.59;102308.66;5087936;28;19933;-54
2024/01/11 02:43:49;;;;;;;;;;;;;;;0.40;67.54;102309.31;5064040;28;20363;-54
2024/01/11 02:46:16;;;;;;;;;;;;;;;0.52;67.10;102307.66;5066988;28;19925;-57
2024/01/11 02:48:44;;;;;;;;;;;;;;;0.57;66.75;102316.84;5098119;28;19924;-58
2024/01/11 02:51:11;;;;;;;;;;;;;;;0.41;66.56;102316.38;5066700;28;19924;-56
2024/01/11 02:53:38;;;;;;;;;;;;;;;0.21;67.43;102312.84;5067297;28;19932;-52
2024/01/11 02:56:06;;;;;;;;;;;;;;;0.31;67.21;102318.69;5050829;28;19935;-54
2024/01/11 02:58:33;;;;;;;;;;;;;;;0.11;67.54;102313.22;5051190;28;19925;-56
2024/01/11 03:01:00;;;;;;;;;;;;;;;0.00;68.62;102313.84;5051922;28;19930;-57
2024/01/11 03:03:27;;;;;;;;;;;;;;;0.14;68.63;102314.72;5067813;28;19935;-59
2024/01/11 03:05:54;;;;;;;;;;;;;;;0.16;68.10;102316.16;5070142;28;19920;-57
2024/01/11 03:08:22;;;;;;;;;;;;;;;0.26;67.61;102310.34;5071454;28;19931;-56
2024/01/11 03:10:49;;;;;;;;;;;;;;;0.10;68.40;102310.72;5072077;28;19933;-59
2024/01/11 03:13:16;;;;;;;;;;;;;;;0.23;68.31;102305.34;5071421;28;19924;-53
2024/01/11 03:15:43;;;;;;;;;;;;;;;0.23;67.91;102317.00;5071734;28;20323;-57
2024/01/11 03:18:14;;;;;;;;;;;;;;;0.06;67.82;102312.19;5071786;28;19931;-55
2024/01/11 03:20:41;;;;;;;;;;;;;;;0.33;67.53;102317.41;5069875;28;19924;-59
2024/01/11 03:23:08;;;;;;;;;;;;;;;0.44;67.52;102318.69;5069492;28;19924;-56
2024/01/11 03:25:36;;;;;;;;;;;;;;;0.27;67.96;102317.41;5072072;28;19924;-56
2024/01/11 03:28:10;;;;;;;;;;;;;;;0.34;68.23;102323.69;5053685;28;19927;-56
2024/01/11 03:30:37;;;;;;;;;;;;;;;0.15;67.99;102329.91;5068912;28;20145;-56
2024/01/11 03:33:04;;;;;;;;;;;;;;;0.20;68.47;102320.13;5095521;28;20011;-54
2024/01/11 03:35:32;;;;;;;;;;;;;;;0.24;68.09;102325.97;5052160;28;19924;-55
2024/01/11 03:38:01;;;;;;;;;;;;;;;0.24;67.74;102320.56;5067775;28;19931;-55
2024/01/11 03:40:44;;;;;;;;;;;;;;;0.38;67.33;102320.38;5081551;28;19955;-57
2024/01/11 03:43:23;;;;;;;;;;;;;;;0.54;66.82;102316.41;5069779;28;19931;-54
2024/01/11 03:45:52;;;;;;;;;;;;;;;0.61;66.81;102312.63;5072305;28;20385;-54
2024/01/11 03:48:19;;;;;;;;;;;;;;;0.50;66.70;102323.28;5061804;28;19924;-55
2024/01/11 03:50:46;;;;;;;;;;;;;;;0.19;68.14;102331.19;5051197;28;19931;-54
2024/01/11 03:53:13;;;;;;;;;;;;;;;0.36;67.65;102317.03;5050854;28;19925;-57
2024/01/11 03:55:40;;;;;;;;;;;;;;;0.52;66.65;102329.34;5054866;28;20276;-55
2024/01/11 03:58:07;;;;;;;;;;;;;;;0.36;66.14;102329.72;5069230;28;19928;-55
2024/01/11 04:00:34;;;;;;;;;;;;;;;0.14;67.48;102315.53;5102525;28;20288;-55
2024/01/11 04:03:02;;;;;;;;;;;;;;;0.34;67.44;102329.94;5068938;28;19924;-57
2024/01/11 04:05:29;;;;;;;;;;;;;;;0.25;67.41;102331.19;5070530;28;19924;-56
2024/01/11 04:07:56;;;;;;;;;;;;;;;0.32;67.46;102326.59;5069083;28;20683;-58
2024/01/11 04:10:23;;;;;;;;;;;;;;;0.05;68.04;102324.91;5069070;28;19931;-54
2024/01/11 04:12:50;;;;;;;;;;;;;;;0.00;68.27;102328.22;5071125;28;19925;-57
2024/01/11 04:15:17;;;;;;;;;;;;;;;0.17;68.20;102333.25;5067433;28;19932;-55
2024/01/11 04:17:44;;;;;;;;;;;;;;;0.12;67.83;102331.19;5070412;28;20374;-63
2024/01/11 04:20:11;;;;;;;;;;;;;;;0.25;67.80;102325.75;5069055;28;19924;-64
2024/01/11 04:22:38;;;;;;;;;;;;;;;0.32;68.07;102339.31;5069472;28;19931;-64
2024/01/11 04:25:06;;;;;;;;;;;;;;;0.30;67.11;102344.94;5069181;28;20314;-64
2024/01/11 04:27:33;;;;;;;;;;;;;;;0.03;67.96;102349.47;5069505;28;19931;-63
2024/01/11 04:30:00;;;;;;;;;;;;;;;-0.11;68.40;102357.78;5052422;28;19924;-63
2024/01/11 04:32:27;;;;;;;;;;;;;;;-0.11;68.96;102355.91;5053813;28;19931;-63
2024/01/11 04:34:54;;;;;;;;;;;;;;;-0.09;69.27;102358.41;5066484;28;19931;-66
2024/01/11 04:37:21;;;;;;;;;;;;;;;0.10;68.61;102356.78;5069521;28;19924;-63
2024/01/11 04:39:48;;;;;;;;;;;;;;;0.03;68.37;102362.19;5068403;28;19925;-64
2024/01/11 04:42:15;;;;;;;;;;;;;;;0.12;68.26;102360.97;5069389;28;19925;-64
2024/01/11 04:44:42;;;;;;;;;;;;;;;0.11;68.33;102369.28;5068961;28;19924;-63
2024/01/11 04:47:10;;;;;;;;;;;;;;;-0.04;68.13;102375.72;5062338;28;19978;-64
2024/01/11 04:49:37;;;;;;;;;;;;;;;0.30;68.27;102361.19;5049459;28;19925;-64
2024/01/11 04:52:04;;;;;;;;;;;;;;;0.26;67.69;102368.09;5049749;28;19945;-63
2024/01/11 04:54:31;;;;;;;;;;;;;;;0.27;67.45;102364.31;5049025;28;19931;-63
2024/01/11 04:56:58;;;;;;;;;;;;;;;0.00;67.94;102357.19;5050063;28;19940;-63
2024/01/11 04:59:25;;;;;;;;;;;;;;;0.01;67.89;102353.44;5049669;28;19931;-63
2024/01/11 05:01:53;;;;;;;;;;;;;;;-0.05;68.75;102357.78;5048856;28;19929;-64
2024/01/11 05:04:20;;;;;;;;;;;;;;;-0.01;68.46;102359.06;5047702;28;19924;-65
2024/01/11 05:06:47;;;;;;;;;;;;;;;-0.06;68.10;102360.69;5068275;28;19924;-64
2024/01/11 05:09:14;;;;;;;;;;;;;;;-0.27;68.55;102372.50;5071326;28;19925;-64
2024/01/11 05:11:41;;;;;;;;;;;;;;;-0.09;68.88;102372.75;5047383;28;19925;-63
2024/01/11 05:14:08;;;;;;;;;;;;;;;0.08;68.59;102367.00;5060428;28;19928;-64
2024/01/11 05:16:36;;;;;;;;;;;;;;;0.19;67.73;102377.22;5080399;28;19934;-63
2024/01/11 05:19:03;;;;;;;;;;;;;;;-0.18;68.56;102376.72;5089962;28;19924;-64
2024/01/11 05:21:30;;;;;;;;;;;;;;;-0.22;69.05;102378.16;5075155;28;19925;-64
2024/01/11 05:23:57;;;;;;;;;;;;;;;-0.19;69.75;102383.16;5067743;28;19924;-64
2024/01/11 05:26:25;;;;;;;;;;;;;;;-0.24;69.56;102382.06;5068563;28;20655;-63
2024/01/11 05:28:52;;;;;;;;;;;;;;;-0.33;70.07;102392.25;5084218;28;19924;-63
2024/01/11 05:31:21;;;;;;;;;;;;;;;-0.22;70.32;102382.72;5066951;28;19959;-62
2024/01/11 05:33:49;;;;;;;;;;;;;;;0.13;69.47;102381.59;5070280;28;19928;-64
2024/01/11 05:36:16;;;;;;;;;;;;;;;-0.14;69.07;102379.84;5071127;28;19920;-64
2024/01/11 05:38:49;;;;;;;;;;;;;;;-0.20;69.59;102383.34;5071800;28;19931;-65
2024/01/11 05:41:16;;;;;;;;;;;;;;;-0.08;69.18;102376.31;5066372;28;19930;-64
2024/01/11 05:43:44;;;;;;;;;;;;;;;0.05;69.11;102383.66;5069044;28;19931;-62
2024/01/11 05:46:11;;;;;;;;;;;;;;;0.10;69.02;102373.03;5071041;28;19947;-65
2024/01/11 05:48:45;;;;;;;;;;;;;;;0.14;68.61;102368.88;5071958;28;19921;-66
2024/01/11 05:51:15;;;;;;;;;;;;;;;0.29;68.20;102380.38;5070462;28;20402;-63
2024/01/11 05:53:42;;;;;;;;;;;;;;;0.17;67.80;102382.03;5070364;28;19924;-63
2024/01/11 05:56:09;;;;;;;;;;;;;;;0.03;68.86;102388.44;5067154;28;19928;-65
2024/01/11 05:58:38;;;;;;;;;;;;;;;0.20;68.70;102396.00;5052421;28;19924;-64
2024/01/11 06:01:05;;;;;;;;;;;;;;;0.37;68.10;102397.28;5073556;28;19924;-63
2024/01/11 06:03:34;;;;;;;;;;;;;;;0.35;67.95;102398.53;5065064;28;19931;-64
2024/01/11 06:06:02;;;;;;;;;;;;;;;0.07;68.85;102417.59;5063774;28;19924;-63
2024/01/11 06:08:30;;;;;;;;;;;;;;;0.16;68.28;102423.72;5053142;28;19947;-64
2024/01/11 06:10:58;;;;;;;;;;;;;;;0.14;68.77;102412.22;5049190;28;19944;-64
2024/01/11 06:13:25;;;;;;;;;;;;;;;0.14;69.47;102415.75;5053711;28;20275;-64
2024/01/11 06:15:53;;;;;;;;;;;;;;;0.14;68.90;102421.19;5050152;28;19925;-63
2024/01/11 06:18:20;;;;;;;;;;;;;;;0.14;69.32;102431.19;5061438;28;19924;-64
2024/01/11 06:20:47;;;;;;;;;;;;;;;0.05;69.81;102425.13;5068337;28;19931;-63
2024/01/11 06:23:16;;;;;;;;;;;;;;;-0.10;70.22;102441.50;5067888;28;19924;-64
2024/01/11 06:25:46;;;;;;;;;;;;;;;-0.08;69.89;102441.31;5066630;28;19924;-65
2024/01/11 06:28:13;;;;;;;;;;;;;;;-0.05;70.44;102439.03;5064722;28;20399;-62
2024/01/11 06:30:40;;;;;;;;;;;;;;;0.00;70.29;102450.09;5052928;28;20469;-64
2024/01/11 06:33:08;;;;;;;;;;;;;;;-0.10;70.66;102448.78;5066784;28;19924;-63
2024/01/11 06:35:35;;;;;;;;;;;;;;;-0.11;70.42;102447.13;5066323;28;19929;-63
2024/01/11 06:38:02;;;;;;;;;;;;;;;0.07;70.17;102447.41;5068377;28;19932;-63
2024/01/11 06:40:29;;;;;;;;;;;;;;;0.12;69.41;102436.81;5068957;28;20513;-63
2024/01/11 06:42:56;;;;;;;;;;;;;;;0.20;69.43;102442.06;5083449;28;19932;-62
2024/01/11 06:45:24;;;;;;;;;;;;;;;0.35;69.40;102444.63;5065666;28;19931;-62
2024/01/11 06:47:51;;;;;;;;;;;;;;;0.40;68.87;102456.47;5080958;28;19924;-63
2024/01/11 06:50:18;;;;;;;;;;;;;;;0.20;69.65;102471.84;5048533;28;19924;-62
2024/01/11 06:52:45;;;;;;;;;;;;;;;0.11;69.45;102475.78;5079321;28;19925;-64
2024/01/11 06:55:13;;;;;;;;;;;;;;;0.18;70.00;102486.63;5048242;28;20335;-63
2024/01/11 06:57:46;;;;;;;;;;;;;;;0.01;70.62;102491.56;5079955;28;20414;-63
2024/01/11 07:00:13;;;;;;;;;;;;;;;-0.11;71.15;102494.03;5063231;28;19932;-63
2024/01/11 07:02:42;;;;;;;;;;;;;;;0.07;70.89;102492.66;5076382;28;19925;-66
2024/01/11 07:05:13;;;;;;;;;;;;;;;0.23;70.78;102484.19;5050566;28;19924;-64
2024/01/11 07:07:40;;;;;;;;;;;;;;;0.25;70.36;102488.34;5068098;28;19935;-64
2024/01/11 07:10:08;;;;;;;;;;;;;;;0.62;69.24;102489.72;5065900;28;19924;-63
2024/01/11 07:12:37;;;;;;;;;;;;;;;0.46;68.78;102495.50;5067130;28;20457;-65
2024/01/11 07:15:04;;;;;;;;;;;;;;;0.28;69.73;102493.34;5066772;28;19948;-63
2024/01/11 07:17:32;;;;;;;;;;;;;;;0.37;69.43;102494.84;5065451;28;19925;-62
2024/01/11 07:19:59;;;;;;;;;;;;;;;0.40;70.36;102497.13;5070990;28;19924;-63
2024/01/11 07:22:26;;;;;;;;;;;;;;;0.61;70.06;102499.72;5048250;28;20027;-63
2024/01/11 07:24:53;;;;;;;;;;;;;;;0.46;69.55;102490.91;5083383;28;20497;-61
2024/01/11 07:27:20;;;;;;;;;;;;;;;0.40;69.91;102497.13;5067941;28;20374;-64
2024/01/11 07:29:47;;;;;;;;;;;;;;;0.42;70.07;102499.69;5051191;28;19925;-65
2024/01/11 07:32:15;;;;;;;;;;;;;;;0.47;70.27;102510.75;5064805;28;20331;-64
2024/01/11 07:34:42;;;;;;;;;;;;;;;0.14;70.69;102521.41;5067765;28;19924;-64
2024/01/11 07:37:09;;;;;;;;;;;;;;;0.03;72.09;102513.03;5071143;28;19930;-65
2024/01/11 07:39:36;;;;;;;;;;;;;;;0.25;71.87;102523.56;5071459;28;19924;-64
2024/01/11 07:42:03;;;;;;;;;;;;;;;0.44;71.04;102522.81;5068610;28;19932;-64
2024/01/11 07:44:30;;;;;;;;;;;;;;;0.33;71.14;102520.66;5086203;28;19928;-64
2024/01/11 07:46:58;;;;;;;;;;;;;;;0.36;71.14;102524.88;5069612;28;19931;-65
2024/01/11 07:49:28;;;;;;;;;;;;;;;0.30;71.43;102515.66;5070945;28;19930;-64
2024/01/11 07:51:55;;;;;;;;;;;;;;;0.33;70.68;102523.38;5060073;28;20417;-57
2024/01/11 07:54:22;;;;;;;;;;;;;;;0.25;71.08;102520.84;5050645;28;20542;-56
2024/01/11 07:56:49;;;;;;;;;;;;;;;0.30;71.14;102531.09;5056820;28;20636;-55
2024/01/11 07:59:16;;;;;;;;;;;;;;;0.17;71.50;102529.16;5070519;28;19935;-53
2024/01/11 08:01:44;;;;;;;;;;;;;;;0.28;72.05;102544.00;5068529;28;19931;-56
2024/01/11 08:04:11;;;;;;;;;;;;;;;0.18;71.83;102536.25;5070465;28;20354;-57
2024/01/11 08:06:38;;;;;;;;;;;;;;;0.40;71.52;102545.09;5066027;28;20613;-56
2024/01/11 08:09:05;;;;;;;;;;;;;;;0.17;72.08;102553.56;5069099;28;19924;-59
2024/01/11 08:11:33;;;;;;;;;;;;;;;0.07;73.01;102554.94;5069469;28;19925;-57
2024/01/11 08:14:05;;;;;;;;;;;;;;;0.30;72.58;102550.06;5058786;28;20383;-57
2024/01/11 08:16:32;;;;;;;;;;;;;;;0.31;72.53;102549.03;5086171;28;19980;-55
2024/01/11 08:19:00;;;;;;;;;;;;;;;0.22;72.55;102544.81;5070009;28;19924;-55
2024/01/11 08:21:28;;;;;;;;;;;;;;;0.25;72.30;102549.81;5062249;28;19935;-52
2024/01/11 08:23:55;;;;;;;;;;;;;;;0.15;72.80;102552.06;5048324;28;19925;-57
2024/01/11 08:26:29;;;;;;;;;;;;;;;0.27;73.05;102553.16;5052913;28;19929;-53
2024/01/11 08:28:57;;;;;;;;;;;;;;;0.31;72.54;102549.03;5084855;28;19924;-56
2024/01/11 08:31:24;;;;;;;;;;;;;;;0.27;72.76;102540.47;5070216;28;19924;-58
2024/01/11 08:33:51;;;;;;;;;;;;;;;0.26;72.89;102532.53;5069967;28;20024;-54
2024/01/11 08:36:18;;;;;;;;;;;;;;;0.14;73.22;102540.38;5068263;28;19932;-56
2024/01/11 08:38:46;;;;;;;;;;;;;;;-0.12;73.69;102540.22;5070250;28;19924;-58
2024/01/11 08:41:13;;;;;;;;;;;;;;;-0.13;75.27;102536.72;5070287;28;20411;-56
2024/01/11 08:43:40;;;;;;;;;;;;;;;0.17;74.33;102550.00;5070332;28;20409;-60
2024/01/11 08:46:07;;;;;;;;;;;;;;;0.03;74.60;102543.69;5069535;28;19951;-58
2024/01/11 08:48:34;;;;;;;;;;;;;;;0.18;73.17;102557.91;5069690;28;20027;-58
2024/01/11 08:51:01;;;;;;;;;;;;;;;0.27;73.27;102555.88;5070328;28;20027;-56
2024/01/11 08:53:29;;;;;;;;;;;;;;;0.28;73.19;102552.97;5069910;28;19931;-58
2024/01/11 08:55:56;;;;;;;;;;;;;;;0.50;72.73;102554.53;5069769;28;19920;-57
2024/01/11 08:58:24;;;;;;;;;;;;;;;0.29;72.31;102551.09;5068986;28;19931;-52
2024/01/11 09:00:51;;;;;;;;;;;;;;;0.19;72.91;102564.19;5068451;28;19924;-56
2024/01/11 09:03:18;;;;;;;;;;;;;;;0.08;72.90;102554.75;5070122;28;19924;-59
2024/01/11 09:05:45;;;;;;;;;;;;;;;0.15;72.15;102557.47;5069750;28;19931;-54
2024/01/11 09:08:12;;;;;;;;;;;;;;;0.20;72.34;102555.84;5068451;28;19931;-58
2024/01/11 09:10:41;;;;;;;;;;;;;;;0.32;71.51;102553.41;5085547;28;19924;-55
2024/01/11 09:13:09;;;;;;;;;;;;;;;0.42;71.45;102553.88;5067409;28;19928;-57
2024/01/11 09:15:38;;;;;;;;;;;;;;;0.56;70.85;102561.03;5062620;28;19936;-57
2024/01/11 09:18:05;;;;;;;;;;;;;;;0.66;70.02;102567.72;5039002;28;19925;-53
2024/01/11 09:20:34;;;;;;;;;;;;;;;0.74;70.20;102569.41;5048561;28;19951;-58
2024/01/11 09:23:03;;;;;;;;;;;;;;;0.74;69.86;102582.97;5054330;28;19924;-56
2024/01/11 09:25:30;;;;;;;;;;;;;;;0.68;69.73;102575.66;5067365;28;19924;-55
2024/01/11 09:27:58;;;;;;;;;;;;;;;0.52;69.88;102568.72;5101187;28;19931;-58
2024/01/11 09:30:36;;;;;;;;;;;;;;;0.63;69.50;102564.56;5066631;28;19924;-55
2024/01/11 09:33:36;;;;;;;;;;;;;;;0.86;69.10;102563.22;5085718;28;19916;-55
2024/01/11 09:36:04;;;;;;;;;;;;;;;1.04;68.35;102557.19;5085147;28;19928;-57
2024/01/11 09:38:33;;;;;;;;;;;;;;;0.78;68.54;102562.56;5086725;28;20280;-58
2024/01/11 09:41:07;;;;;;;;;;;;;;;0.88;68.80;102563.00;5086611;28;19929;-58
2024/01/11 09:43:37;;;;;;;;;;;;;;;0.57;69.24;102565.41;5102045;28;19928;-59
2024/01/11 09:46:05;;;;;;;;;;;;;;;0.72;69.59;102566.06;5086547;28;20026;-57
2024/01/11 09:48:33;;;;;;;;;;;;;;;1.03;68.62;102569.06;5069552;28;19992;-58
2024/01/11 09:51:04;;;;;;;;;;;;;;;1.05;67.76;102573.25;5067551;28;19928;-56
2024/01/11 09:53:32;;;;;;;;;;;;;;;1.06;67.74;102564.06;5065904;28;20271;-63
2024/01/11 09:55:59;;;;;;;;;;;;;;;0.84;67.10;102561.72;5065924;28;19936;-64
2024/01/11 09:58:26;;;;;;;;;;;;;;;0.97;66.46;102564.47;5065841;28;19955;-63
2024/01/11 10:00:54;;;;;;;;;;;;;;;0.99;66.62;102562.41;5065935;28;19929;-64
2024/01/11 10:03:22;;;;;;;;;;;;;;;1.08;66.28;102569.31;5081553;28;19932;-62
2024/01/11 10:05:50;;;;;;;;;;;;;;;1.20;66.01;102556.81;5084607;28;20529;-63
2024/01/11 10:08:19;;;;;;;;;;;;;;;0.83;67.10;102552.78;5088015;28;20679;-63
2024/01/11 10:10:46;;;;;;;;;;;;;;;1.01;67.37;102557.63;5067504;28;19936;-63
2024/01/11 10:13:13;;;;;;;;;;;;;;;0.96;67.05;102566.34;5064035;28;19928;-63
2024/01/11 10:15:40;;;;;;;;;;;;;;;1.14;66.44;102561.19;5063510;28;20394;-62
2024/01/11 10:18:07;;;;;;;;;;;;;;;0.82;65.03;102563.84;5065220;28;19939;-63
2024/01/11 10:20:34;;;;;;;;;;;;;;;0.62;64.50;102561.03;5069392;28;20038;-64
2024/01/11 10:23:02;;;;;;;;;;;;;;;0.73;64.72;102560.44;5065305;28;19960;-64
2024/01/11 10:25:29;;;;;;;;;;;;;;;0.82;63.78;102561.94;5080451;28;19929;-64
2024/01/11 10:27:57;;;;;;;;;;;;;;;0.72;63.89;102564.19;5064250;28;20845;-63
2024/01/11 10:30:26;;;;;;;;;;;;;;;0.61;64.84;102558.53;5063552;28;19935;-63
2024/01/11 10:32:53;;;;;;;;;;;;;;;0.74;64.41;102542.31;5081562;28;19929;-64
2024/01/11 10:35:43;;;;;;;;;;;;;;;0.83;63.94;102531.06;5055242;28;19936;-63
2024/01/11 10:38:10;;;;;;;;;;;;;;;0.83;63.85;102532.94;5063923;28;19936;-63
2024/01/11 10:40:37;;;;;;;;;;;;;;;0.56;63.85;102542.06;5064253;28;19943;-63
2024/01/11 10:43:05;;;;;;;;;;;;;;;0.67;63.35;102542.28;5090324;28;19953;-63
2024/01/11 10:45:38;;;;;;;;;;;;;;;0.84;63.67;102527.31;5056524;28;20395;-62
2024/01/11 10:48:15;;;;;;;;;;;;;;;0.71;62.79;102526.44;5051033;28;20042;-62
2024/01/11 10:50:43;;;;;;;;;;;;;;;0.63;63.33;102538.31;5049277;28;20315;-63
2024/01/11 10:53:13;;;;;;;;;;;;;;;0.60;63.65;102535.16;5051249;28;20356;-63
2024/01/11 10:55:40;;;;;;;;;;;;;;;0.73;63.13;102543.34;5062911;28;19928;-63
2024/01/11 10:58:07;;;;;;;;;;;;;;;0.79;63.90;102556.06;5086857;28;19928;-63
2024/01/11 11:00:34;;;;;;;;;;;;;;;0.90;63.22;102553.63;5070875;28;19947;-62
2024/01/11 11:03:01;;;;;;;;;;;;;;;0.70;63.29;102563.56;5058545;28;20522;-63
2024/01/11 11:05:31;;;;;;;;;;;;;;;1.00;62.98;102567.63;5050817;28;19929;-64
2024/01/11 11:07:59;;;;;;;;;;;;;;;0.96;62.59;102560.94;5033428;28;19929;-63
2024/01/11 11:10:27;;;;;;;;;;;;;;;0.87;63.13;102559.44;5049513;28;19928;-63
2024/01/11 11:12:55;;;;;;;;;;;;;;;0.74;63.29;102547.72;5051001;28;19929;-64
2024/01/11 11:15:22;;;;;;;;;;;;;;;0.80;63.13;102541.50;5051024;28;19936;-63
2024/01/11 11:17:49;;;;;;;;;;;;;;;0.83;63.11;102554.63;5065807;28;19928;-62
2024/01/11 11:20:16;;;;;;;;;;;;;;;1.16;62.79;102558.25;5053302;28;19929;-65
2024/01/11 11:22:48;;;;;;;;;;;;;;;0.98;62.10;102547.16;5069876;28;19928;-63
2024/01/11 11:25:25;;;;;;;;;;;;;;;1.14;62.17;102561.19;5071385;28;20393;-63
2024/01/11 11:27:53;;;;;;;;;;;;;;;1.04;61.86;102565.34;5072161;28;19939;-64
2024/01/11 11:30:20;;;;;;;;;;;;;;;0.68;62.68;102564.81;5057193;28;19929;-62
2024/01/11 11:32:47;;;;;;;;;;;;;;;0.77;62.41;102571.72;5049263;28;19935;-65
2024/01/11 11:35:15;;;;;;;;;;;;;;;0.74;62.88;102570.25;5050873;28;19929;-63
2024/01/11 11:37:42;;;;;;;;;;;;;;;0.90;62.45;102579.91;5070089;28;19928;-62
2024/01/11 11:40:12;;;;;;;;;;;;;;;1.17;61.78;102576.19;5070582;28;19940;-64
2024/01/11 11:42:39;;;;;;;;;;;;;;;1.02;61.99;102564.69;5070400;28;19928;-64
2024/01/11 11:45:07;;;;;;;;;;;;;;;0.98;62.69;102564.28;5084856;28;19939;-62
2024/01/11 11:47:35;;;;;;;;;;;;;;;1.03;61.94;102571.78;5060333;28;19928;-64
2024/01/11 11:50:03;;;;;;;;;;;;;;;0.94;62.56;102562.19;5050258;28;19938;-62
2024/01/11 11:52:30;;;;;;;;;;;;;;;1.06;62.16;102560.53;5063518;28;19929;-64
2024/01/11 11:54:57;;;;;;;;;;;;;;;1.04;62.46;102563.47;5064308;28;20295;-63
2024/01/11 11:57:24;;;;;;;;;;;;;;;1.02;62.69;102567.41;5045649;28;19929;-63
2024/01/11 11:59:51;;;;;;;;;;;;;;;1.03;62.93;102569.06;5070685;28;19928;-63
2024/01/11 12:02:18;;;;;;;;;;;;;;;1.15;62.85;102567.44;5044531;28;20003;-62
2024/01/11 12:04:49;;;;;;;;;;;;;;;1.44;62.10;102563.50;5048581;28;20615;-62
2024/01/11 12:07:16;;;;;;;;;;;;;;;1.23;62.35;102560.97;5054143;28;19935;-64
2024/01/11 12:09:43;;;;;;;;;;;;;;;1.47;61.81;102566.63;5065907;28;19935;-64
2024/01/11 12:12:10;;;;;;;;;;;;;;;1.69;61.23;102556.41;5056379;28;19928;-63
2024/01/11 12:14:42;;;;;;;;;;;;;;;1.39;61.70;102564.13;5045212;28;19951;-64
2024/01/11 12:17:09;;;;;;;;;;;;;;;1.27;62.31;102562.25;5049973;28;19936;-64
2024/01/11 12:19:37;;;;;;;;;;;;;;;1.37;62.08;102562.66;5049969;28;19933;-58
2024/01/11 12:25:04;;;;;;;;;;;;;;;1.68;61.33;102547.41;5049171;28;20394;-58
2024/01/11 12:27:31;;;;;;;;;;;;;;;1.59;61.32;102551.38;5049860;28;19928;-57
2024/01/11 12:29:58;;;;;;;;;;;;;;;1.63;61.20;102554.50;5064100;28;19936;-54
2024/01/11 12:32:26;;;;;;;;;;;;;;;1.48;61.27;102557.47;5049031;28;19936;-56
2024/01/11 12:34:53;;;;;;;;;;;;;;;1.51;61.96;102538.03;5049625;28;19928;-57
2024/01/11 12:37:21;;;;;;;;;;;;;;;1.33;62.15;102532.38;5064601;28;19975;-58
2024/01/11 12:39:48;;;;;;;;;;;;;;;1.21;62.76;102554.91;5064645;28;19935;-58
2024/01/11 12:42:15;;;;;;;;;;;;;;;1.38;62.48;102535.28;5056662;28;19928;-56
2024/01/11 12:44:43;;;;;;;;;;;;;;;1.38;62.42;102539.91;5068893;28;19928;-56
2024/01/11 12:47:10;;;;;;;;;;;;;;;1.43;62.53;102526.53;5078557;28;19929;-57
2024/01/11 12:49:38;;;;;;;;;;;;;;;1.29;62.76;102524.88;5029410;28;19929;-59
2024/01/11 12:52:05;;;;;;;;;;;;;;;1.42;62.49;102514.84;5056879;28;19936;-57